createdAt,value
2016-12-15T00:00:56.721Z,1018.29
2016-12-15T00:02:00.166Z,1018.28
2016-12-15T00:03:03.633Z,1018.32
2016-12-15T00:04:07.079Z,1018.26
2016-12-15T00:05:10.530Z,1018.24
2016-12-15T00:06:13.995Z,1018.21
2016-12-15T00:07:17.444Z,1018.24
2016-12-15T00:08:20.892Z,1018.23
2016-12-15T00:09:24.358Z,1018.25
2016-12-15T00:10:27.807Z,1018.26
2016-12-15T00:11:31.255Z,1018.27
2016-12-15T00:12:34.719Z,1018.25
2016-12-15T00:13:38.171Z,1018.27
2016-12-15T00:14:41.615Z,1018.25
2016-12-15T00:15:45.079Z,1018.22
2016-12-15T00:16:48.530Z,1018.24
2016-12-15T00:17:51.978Z,1018.24
2016-12-15T00:18:55.442Z,1018.25
2016-12-15T00:19:58.893Z,1018.25
2016-12-15T00:21:02.341Z,1018.25
2016-12-15T00:22:05.804Z,1018.27
2016-12-15T00:23:09.254Z,1018.28
2016-12-15T00:24:12.701Z,1018.29
2016-12-15T00:25:16.167Z,1018.27
2016-12-15T00:26:19.615Z,1018.27
2016-12-15T00:27:23.066Z,1018.31
2016-12-15T00:28:26.527Z,1018.31
2016-12-15T00:29:29.976Z,1018.34
2016-12-15T00:30:33.425Z,1018.29
2016-12-15T00:31:36.890Z,1018.27
2016-12-15T00:32:40.338Z,1018.28
2016-12-15T00:33:43.786Z,1018.24
2016-12-15T00:34:47.251Z,1018.24
2016-12-15T00:35:50.702Z,1018.26
2016-12-15T00:36:54.145Z,1018.25
2016-12-15T00:37:57.612Z,1018.25
2016-12-15T00:39:01.063Z,1018.25
2016-12-15T00:40:04.510Z,1018.25
2016-12-15T00:41:07.975Z,1018.31
2016-12-15T00:42:11.424Z,1018.28
2016-12-15T00:43:14.874Z,1018.31
2016-12-15T00:44:18.337Z,1018.3
2016-12-15T00:45:21.785Z,1018.34
2016-12-15T00:46:25.235Z,1018.34
2016-12-15T00:47:28.699Z,1018.31
2016-12-15T00:48:32.158Z,1018.33
2016-12-15T00:49:35.605Z,1018.35
2016-12-15T00:50:39.066Z,1018.34
2016-12-15T00:51:42.513Z,1018.34
2016-12-15T00:52:45.957Z,1018.37
2016-12-15T00:53:49.421Z,1018.38
2016-12-15T00:54:52.872Z,1018.34
2016-12-15T00:55:56.321Z,1018.4
2016-12-15T00:56:59.784Z,1018.38
2016-12-15T00:58:03.234Z,1018.37
2016-12-15T00:59:06.680Z,1018.38
2016-12-15T01:00:10.146Z,1018.37
2016-12-15T01:01:13.593Z,1018.32
2016-12-15T01:02:17.044Z,1018.36
2016-12-15T01:03:20.507Z,1018.37
2016-12-15T01:04:23.956Z,1018.39
2016-12-15T01:05:27.406Z,1018.39
2016-12-15T01:06:30.868Z,1018.34
2016-12-15T01:07:34.318Z,1018.4
2016-12-15T01:08:37.763Z,1018.4
2016-12-15T01:09:41.230Z,1018.4
2016-12-15T01:10:44.679Z,1018.37
2016-12-15T01:11:48.127Z,1018.41
2016-12-15T01:12:51.593Z,1018.37
2016-12-15T01:13:55.045Z,1018.4
2016-12-15T01:14:58.488Z,1018.41
2016-12-15T01:16:01.953Z,1018.4
2016-12-15T01:17:05.403Z,1018.38
2016-12-15T01:18:08.853Z,1018.4
2016-12-15T01:19:12.315Z,1018.42
2016-12-15T01:20:15.764Z,1018.42
2016-12-15T01:21:19.213Z,1018.44
2016-12-15T01:22:22.678Z,1018.42
2016-12-15T01:23:26.129Z,1018.42
2016-12-15T01:24:29.577Z,1018.42
2016-12-15T01:25:33.039Z,1018.48
2016-12-15T01:26:36.491Z,1018.5
2016-12-15T01:27:39.937Z,1018.52
2016-12-15T01:28:43.402Z,1018.51
2016-12-15T01:29:46.851Z,1018.52
2016-12-15T01:30:50.300Z,1018.54
2016-12-15T01:31:53.763Z,1018.57
2016-12-15T01:32:57.212Z,1018.56
2016-12-15T01:34:00.660Z,1018.6
2016-12-15T01:35:04.134Z,1018.6
2016-12-15T01:36:07.572Z,1018.57
2016-12-15T01:37:11.020Z,1018.59
2016-12-15T01:38:14.488Z,1018.58
2016-12-15T01:39:17.936Z,1018.6
2016-12-15T01:40:21.387Z,1018.57
2016-12-15T01:41:24.847Z,1018.57
2016-12-15T01:42:28.298Z,1018.57
2016-12-15T01:43:31.746Z,1018.55
2016-12-15T01:44:35.211Z,1018.54
2016-12-15T01:45:38.659Z,1018.53
2016-12-15T01:46:42.107Z,1018.53
2016-12-15T01:47:45.573Z,1018.52
2016-12-15T01:48:49.022Z,1018.54
2016-12-15T01:49:52.469Z,1018.52
2016-12-15T01:50:55.934Z,1018.52
2016-12-15T01:51:59.382Z,1018.51
2016-12-15T01:53:02.831Z,1018.49
2016-12-15T01:54:06.296Z,1018.49
2016-12-15T01:55:09.745Z,1018.49
2016-12-15T01:56:13.192Z,1018.49
2016-12-15T01:57:16.657Z,1018.5
2016-12-15T01:58:20.105Z,1018.51
2016-12-15T01:59:23.554Z,1018.56
2016-12-15T02:00:27.019Z,1018.57
2016-12-15T02:01:30.468Z,1018.56
2016-12-15T02:02:33.915Z,1018.58
2016-12-15T02:03:37.381Z,1018.56
2016-12-15T02:04:40.830Z,1018.58
2016-12-15T02:05:44.278Z,1018.59
2016-12-15T02:06:47.742Z,1018.6
2016-12-15T02:07:51.191Z,1018.63
2016-12-15T02:08:54.639Z,1018.62
2016-12-15T02:09:58.103Z,1018.6
2016-12-15T02:11:01.554Z,1018.58
2016-12-15T02:12:05.007Z,1018.55
2016-12-15T02:13:08.466Z,1018.56
2016-12-15T02:14:11.914Z,1018.52
2016-12-15T02:15:15.363Z,1018.54
2016-12-15T02:16:18.839Z,1018.52
2016-12-15T02:17:22.290Z,1018.52
2016-12-15T02:18:25.745Z,1018.55
2016-12-15T02:19:29.196Z,1018.54
2016-12-15T02:20:32.642Z,1018.57
2016-12-15T02:21:36.087Z,1018.58
2016-12-15T02:22:39.551Z,1018.58
2016-12-15T02:23:43.000Z,1018.6
2016-12-15T02:24:46.447Z,1018.6
2016-12-15T02:25:49.912Z,1018.6
2016-12-15T02:26:53.361Z,1018.58
2016-12-15T02:27:56.812Z,1018.57
2016-12-15T02:29:00.275Z,1018.55
2016-12-15T02:30:03.725Z,1018.57
2016-12-15T02:31:07.172Z,1018.57
2016-12-15T02:32:10.635Z,1018.6
2016-12-15T02:33:14.085Z,1018.6
2016-12-15T02:34:17.532Z,1018.58
2016-12-15T02:35:21.005Z,1018.57
2016-12-15T02:36:24.459Z,1018.59
2016-12-15T02:37:27.913Z,1018.57
2016-12-15T02:38:31.367Z,1018.56
2016-12-15T02:39:34.815Z,1018.59
2016-12-15T02:40:38.267Z,1018.57
2016-12-15T02:41:41.728Z,1018.58
2016-12-15T02:42:45.180Z,1018.56
2016-12-15T02:43:48.636Z,1018.57
2016-12-15T02:44:52.090Z,1018.58
2016-12-15T02:45:55.534Z,1018.54
2016-12-15T02:46:58.983Z,1018.57
2016-12-15T02:48:02.445Z,1018.55
2016-12-15T02:49:05.894Z,1018.53
2016-12-15T02:50:09.339Z,1018.54
2016-12-15T02:51:12.807Z,1018.51
2016-12-15T02:52:16.255Z,1018.54
2016-12-15T02:53:19.700Z,1018.51
2016-12-15T02:54:23.168Z,1018.49
2016-12-15T02:55:26.617Z,1018.49
2016-12-15T02:56:30.063Z,1018.48
2016-12-15T02:57:33.530Z,1018.52
2016-12-15T02:58:36.979Z,1018.5
2016-12-15T02:59:40.425Z,1018.47
2016-12-15T03:00:43.892Z,1018.43
2016-12-15T03:01:47.339Z,1018.43
2016-12-15T03:02:50.784Z,1018.44
2016-12-15T03:03:54.238Z,1018.44
2016-12-15T03:04:57.681Z,1018.43
2016-12-15T03:06:01.139Z,1018.47
2016-12-15T03:07:04.589Z,1018.43
2016-12-15T03:08:08.041Z,1018.45
2016-12-15T03:09:11.496Z,1018.47
2016-12-15T03:10:14.943Z,1018.45
2016-12-15T03:11:18.387Z,1018.49
2016-12-15T03:12:22.567Z,1018.45
2016-12-15T03:13:26.014Z,1018.42
2016-12-15T03:14:29.463Z,1018.39
2016-12-15T03:15:32.929Z,1018.4
2016-12-15T03:16:36.375Z,1018.42
2016-12-15T03:17:39.826Z,1018.43
2016-12-15T03:18:43.291Z,1018.41
2016-12-15T03:19:46.739Z,1018.41
2016-12-15T03:20:50.188Z,1018.41
2016-12-15T03:21:53.652Z,1018.45
2016-12-15T03:22:57.099Z,1018.43
2016-12-15T03:24:00.547Z,1018.4
2016-12-15T03:25:04.008Z,1018.43
2016-12-15T03:26:07.464Z,1018.42
2016-12-15T03:27:10.910Z,1018.45
2016-12-15T03:28:14.375Z,1018.47
2016-12-15T03:29:17.824Z,1018.43
2016-12-15T03:30:21.270Z,1018.45
2016-12-15T03:31:24.738Z,1018.41
2016-12-15T03:32:28.188Z,1018.41
2016-12-15T03:33:31.637Z,1018.4
2016-12-15T03:34:35.099Z,1018.41
2016-12-15T03:35:38.548Z,1018.41
2016-12-15T03:36:41.994Z,1018.44
2016-12-15T03:37:45.460Z,1018.43
2016-12-15T03:38:48.909Z,1018.38
2016-12-15T03:39:52.357Z,1018.39
2016-12-15T03:40:55.821Z,1018.37
2016-12-15T03:41:59.272Z,1018.37
2016-12-15T03:43:02.720Z,1018.38
2016-12-15T03:44:06.183Z,1018.35
2016-12-15T03:45:09.635Z,1018.37
2016-12-15T03:46:13.078Z,1018.37
2016-12-15T03:47:16.546Z,1018.37
2016-12-15T03:48:19.995Z,1018.37
2016-12-15T03:49:23.445Z,1018.37
2016-12-15T03:50:26.910Z,1018.32
2016-12-15T03:51:30.356Z,1018.34
2016-12-15T03:52:33.804Z,1018.32
2016-12-15T03:53:37.270Z,1018.32
2016-12-15T03:54:40.718Z,1018.32
2016-12-15T03:55:44.166Z,1018.31
2016-12-15T03:56:47.631Z,1018.33
2016-12-15T03:57:51.083Z,1018.3
2016-12-15T03:58:54.528Z,1018.29
2016-12-15T03:59:57.993Z,1018.27
2016-12-15T04:01:01.442Z,1018.26
2016-12-15T04:02:04.891Z,1018.3
2016-12-15T04:03:08.357Z,1018.29
2016-12-15T04:04:11.803Z,1018.29
2016-12-15T04:05:15.252Z,1018.32
2016-12-15T04:06:18.716Z,1018.35
2016-12-15T04:08:50.594Z,1018.32
2016-12-15T04:09:54.048Z,1018.34
2016-12-15T04:10:57.491Z,1018.35
2016-12-15T04:12:00.943Z,1018.32
2016-12-15T04:13:04.391Z,1018.34
2016-12-15T04:14:07.835Z,1018.36
2016-12-15T04:15:11.299Z,1018.36
2016-12-15T04:16:14.746Z,1018.33
2016-12-15T04:17:18.194Z,1018.3
2016-12-15T04:18:21.660Z,1018.35
2016-12-15T04:19:25.112Z,1018.32
2016-12-15T04:20:28.555Z,1018.36
2016-12-15T04:21:32.021Z,1018.32
2016-12-15T04:22:35.470Z,1018.37
2016-12-15T04:23:38.917Z,1018.36
2016-12-15T04:24:42.383Z,1018.37
2016-12-15T04:25:45.833Z,1018.4
2016-12-15T04:26:49.279Z,1018.39
2016-12-15T04:27:52.746Z,1018.38
2016-12-15T04:28:56.194Z,1018.38
2016-12-15T04:29:59.641Z,1018.41
2016-12-15T04:31:03.107Z,1018.42
2016-12-15T04:32:06.535Z,1018.42
2016-12-15T04:33:09.992Z,1018.46
2016-12-15T04:34:13.442Z,1018.41
2016-12-15T04:35:16.895Z,1018.4
2016-12-15T04:36:20.350Z,1018.41
2016-12-15T04:37:23.795Z,1018.39
2016-12-15T04:38:27.240Z,1018.39
2016-12-15T04:39:30.704Z,1018.4
2016-12-15T04:40:34.153Z,1018.4
2016-12-15T04:41:37.600Z,1018.41
2016-12-15T04:42:41.066Z,1018.38
2016-12-15T04:43:44.512Z,1018.39
2016-12-15T04:44:47.962Z,1018.38
2016-12-15T04:45:51.426Z,1018.36
2016-12-15T04:46:54.876Z,1018.39
2016-12-15T04:47:58.323Z,1018.35
2016-12-15T04:49:01.789Z,1018.37
2016-12-15T04:50:05.236Z,1018.39
2016-12-15T04:51:08.684Z,1018.4
2016-12-15T04:52:12.151Z,1018.41
2016-12-15T04:53:15.599Z,1018.38
2016-12-15T04:54:19.050Z,1018.41
2016-12-15T04:55:22.512Z,1018.43
2016-12-15T04:56:25.960Z,1018.41
2016-12-15T04:57:29.411Z,1018.39
2016-12-15T04:58:32.894Z,1018.39
2016-12-15T04:59:36.383Z,1018.4
2016-12-15T05:00:39.850Z,1018.37
2016-12-15T05:01:43.301Z,1018.38
2016-12-15T05:02:46.744Z,1018.35
2016-12-15T05:03:50.218Z,1018.37
2016-12-15T05:04:53.658Z,1018.37
2016-12-15T05:05:57.116Z,1018.42
2016-12-15T05:07:00.584Z,1018.39
2016-12-15T05:08:04.028Z,1018.43
2016-12-15T05:09:07.471Z,1018.44
2016-12-15T05:10:10.934Z,1018.44
2016-12-15T05:11:14.382Z,1018.45
2016-12-15T05:12:17.828Z,1018.43
2016-12-15T05:13:21.296Z,1018.46
2016-12-15T05:14:24.743Z,1018.45
2016-12-15T05:15:28.194Z,1018.5
2016-12-15T05:16:31.657Z,1018.48
2016-12-15T05:17:35.107Z,1018.48
2016-12-15T05:18:38.550Z,1018.49
2016-12-15T05:19:42.019Z,1018.45
2016-12-15T05:20:45.466Z,1018.46
2016-12-15T05:21:48.917Z,1018.5
2016-12-15T05:22:52.382Z,1018.47
2016-12-15T05:23:55.829Z,1018.53
2016-12-15T05:24:59.279Z,1018.5
2016-12-15T05:26:02.743Z,1018.54
2016-12-15T05:27:06.191Z,1018.54
2016-12-15T05:28:09.639Z,1018.5
2016-12-15T05:29:13.093Z,1018.52
2016-12-15T05:30:16.538Z,1018.58
2016-12-15T05:31:19.994Z,1018.54
2016-12-15T05:32:23.426Z,1018.54
2016-12-15T05:33:26.875Z,1018.53
2016-12-15T05:34:30.340Z,1018.54
2016-12-15T05:35:33.792Z,1018.55
2016-12-15T05:36:37.238Z,1018.55
2016-12-15T05:37:40.687Z,1018.56
2016-12-15T05:38:44.130Z,1018.53
2016-12-15T05:39:47.585Z,1018.54
2016-12-15T05:40:51.034Z,1018.54
2016-12-15T05:41:54.482Z,1018.53
2016-12-15T05:42:57.944Z,1018.51
2016-12-15T05:44:01.390Z,1018.6
2016-12-15T05:45:04.834Z,1018.59
2016-12-15T05:46:08.297Z,1018.56
2016-12-15T05:47:11.745Z,1018.59
2016-12-15T05:48:15.197Z,1018.51
2016-12-15T05:49:18.663Z,1018.57
2016-12-15T05:50:22.103Z,1018.65
2016-12-15T05:51:25.549Z,1018.58
2016-12-15T05:52:29.005Z,1018.56
2016-12-15T05:53:32.450Z,1018.55
2016-12-15T05:54:35.907Z,1018.51
2016-12-15T05:55:39.366Z,1018.55
2016-12-15T05:56:42.810Z,1018.55
2016-12-15T05:57:46.263Z,1018.54
2016-12-15T05:58:49.714Z,1018.54
2016-12-15T05:59:53.157Z,1018.52
2016-12-15T06:00:56.618Z,1018.51
2016-12-15T06:02:00.070Z,1018.5
2016-12-15T06:03:03.515Z,1018.54
2016-12-15T06:04:06.983Z,1018.52
2016-12-15T06:05:10.427Z,1018.53
2016-12-15T06:06:13.878Z,1018.55
2016-12-15T06:07:17.348Z,1018.51
2016-12-15T06:08:20.791Z,1018.52
2016-12-15T06:09:24.241Z,1018.53
2016-12-15T06:10:27.710Z,1018.53
2016-12-15T06:11:31.166Z,1018.51
2016-12-15T06:12:34.619Z,1018.55
2016-12-15T06:13:38.072Z,1018.55
2016-12-15T06:14:41.528Z,1018.49
2016-12-15T06:16:12.088Z,1018.51
2016-12-15T06:17:15.527Z,1018.49
2016-12-15T06:18:18.971Z,1018.51
2016-12-15T06:19:22.437Z,1018.45
2016-12-15T06:20:25.901Z,1018.49
2016-12-15T06:21:29.332Z,1018.47
2016-12-15T06:22:32.797Z,1018.49
2016-12-15T06:23:36.232Z,1018.47
2016-12-15T06:24:39.690Z,1018.49
2016-12-15T06:25:43.151Z,1018.48
2016-12-15T06:26:46.594Z,1018.51
2016-12-15T06:27:50.055Z,1018.47
2016-12-15T06:28:53.509Z,1018.52
2016-12-15T06:29:56.949Z,1018.5
2016-12-15T06:31:00.407Z,1018.47
2016-12-15T06:32:03.856Z,1018.48
2016-12-15T06:33:07.325Z,1018.49
2016-12-15T06:34:10.773Z,1018.48
2016-12-15T06:35:14.251Z,1018.47
2016-12-15T06:36:17.703Z,1018.47
2016-12-15T06:37:21.148Z,1018.5
2016-12-15T06:38:24.616Z,1018.49
2016-12-15T06:39:28.070Z,1018.46
2016-12-15T06:40:31.523Z,1018.47
2016-12-15T06:41:34.982Z,1018.5
2016-12-15T06:42:38.428Z,1018.49
2016-12-15T06:43:41.882Z,1018.49
2016-12-15T06:44:45.329Z,1018.49
2016-12-15T06:45:48.793Z,1018.51
2016-12-15T06:46:52.244Z,1018.46
2016-12-15T06:47:55.698Z,1018.47
2016-12-15T06:48:59.148Z,1018.52
2016-12-15T06:50:02.593Z,1018.5
2016-12-15T06:51:06.041Z,1018.49
2016-12-15T06:52:09.496Z,1018.57
2016-12-15T06:53:12.950Z,1018.52
2016-12-15T06:54:16.414Z,1018.53
2016-12-15T06:55:19.863Z,1018.53
2016-12-15T06:56:23.328Z,1018.52
2016-12-15T06:57:26.787Z,1018.58
2016-12-15T06:58:30.246Z,1018.54
2016-12-15T06:59:33.690Z,1018.52
2016-12-15T07:00:37.148Z,1018.58
2016-12-15T07:01:40.607Z,1018.55
2016-12-15T07:02:44.056Z,1018.59
2016-12-15T07:03:47.509Z,1018.6
2016-12-15T07:04:50.970Z,1018.6
2016-12-15T07:05:54.431Z,1018.65
2016-12-15T07:06:57.901Z,1018.63
2016-12-15T07:08:01.374Z,1018.65
2016-12-15T07:09:04.816Z,1018.62
2016-12-15T07:10:08.263Z,1018.62
2016-12-15T07:11:11.721Z,1018.67
2016-12-15T07:12:15.164Z,1018.68
2016-12-15T07:13:18.623Z,1018.67
2016-12-15T07:14:22.076Z,1018.67
2016-12-15T07:15:25.532Z,1018.7
2016-12-15T07:16:28.970Z,1018.67
2016-12-15T07:17:32.428Z,1018.71
2016-12-15T07:19:03.021Z,1018.69
2016-12-15T07:20:06.461Z,1018.72
2016-12-15T07:21:09.924Z,1018.71
2016-12-15T07:22:13.376Z,1018.77
2016-12-15T07:23:16.825Z,1018.74
2016-12-15T07:24:20.296Z,1018.73
2016-12-15T07:25:23.733Z,1018.74
2016-12-15T07:26:27.185Z,1018.73
2016-12-15T07:27:30.636Z,1018.73
2016-12-15T07:28:34.081Z,1018.74
2016-12-15T07:29:37.536Z,1018.75
2016-12-15T07:30:40.998Z,1018.76
2016-12-15T07:31:44.442Z,1018.79
2016-12-15T07:32:47.902Z,1018.73
2016-12-15T07:33:51.356Z,1018.75
2016-12-15T07:34:54.792Z,1018.77
2016-12-15T07:35:58.248Z,1018.77
2016-12-15T07:37:01.701Z,1018.74
2016-12-15T07:38:05.138Z,1018.71
2016-12-15T07:39:08.615Z,1018.71
2016-12-15T07:40:12.073Z,1018.73
2016-12-15T07:41:15.525Z,1018.7
2016-12-15T07:42:18.980Z,1018.74
2016-12-15T07:43:22.428Z,1018.67
2016-12-15T07:44:52.953Z,1018.71
2016-12-15T07:45:56.397Z,1018.69
2016-12-15T07:46:59.858Z,1018.71
2016-12-15T07:48:03.313Z,1018.66
2016-12-15T07:49:06.755Z,1018.7
2016-12-15T07:50:10.218Z,1018.68
2016-12-15T07:51:13.717Z,1018.56
2016-12-15T07:52:17.158Z,1018.75
2016-12-15T07:53:20.605Z,1018.7
2016-12-15T07:54:24.074Z,1018.69
2016-12-15T07:55:27.526Z,1018.68
2016-12-15T07:56:30.966Z,1018.7
2016-12-15T07:57:34.429Z,1018.66
2016-12-15T07:58:37.886Z,1018.63
2016-12-15T07:59:41.334Z,1018.65
2016-12-15T08:00:44.791Z,1018.66
2016-12-15T08:01:48.242Z,1018.68
2016-12-15T08:02:51.694Z,1018.66
2016-12-15T08:03:55.159Z,1018.65
2016-12-15T08:04:58.607Z,1018.66
2016-12-15T08:06:02.054Z,1018.66
2016-12-15T08:07:05.527Z,1018.61
2016-12-15T08:08:08.987Z,1018.65
2016-12-15T08:09:12.431Z,1018.61
2016-12-15T08:10:15.887Z,1018.62
2016-12-15T08:12:47.590Z,1018.62
2016-12-15T08:13:51.034Z,1018.61
2016-12-15T08:14:54.482Z,1018.63
2016-12-15T08:15:57.928Z,1018.59
2016-12-15T08:17:01.388Z,1018.58
2016-12-15T08:18:04.845Z,1018.61
2016-12-15T08:19:08.286Z,1018.6
2016-12-15T08:20:11.730Z,1018.57
2016-12-15T08:21:42.284Z,1018.57
2016-12-15T08:22:45.728Z,1018.59
2016-12-15T08:23:49.183Z,1018.58
2016-12-15T08:24:52.634Z,1018.6
2016-12-15T08:27:24.102Z,1018.56
2016-12-15T08:28:27.573Z,1018.61
2016-12-15T08:29:31.023Z,1018.61
2016-12-15T08:30:34.471Z,1018.56
2016-12-15T08:31:37.932Z,1018.64
2016-12-15T08:32:41.375Z,1018.63
2016-12-15T08:33:44.819Z,1018.55
2016-12-15T08:34:48.273Z,1018.59
2016-12-15T08:35:51.716Z,1018.64
2016-12-15T08:36:55.178Z,1018.62
2016-12-15T08:37:58.633Z,1018.57
2016-12-15T08:39:02.079Z,1018.63
2016-12-15T08:40:05.540Z,1018.68
2016-12-15T08:42:37.023Z,1018.65
2016-12-15T08:43:42.047Z,1018.68
2016-12-15T08:44:45.509Z,1018.71
2016-12-15T08:47:18.456Z,1018.65
2016-12-15T08:48:21.882Z,1018.71
2016-12-15T08:49:25.359Z,1018.73
2016-12-15T08:50:28.820Z,1018.73
2016-12-15T08:51:32.262Z,1018.75
2016-12-15T08:52:36.404Z,1018.7
2016-12-15T08:53:39.860Z,1018.71
2016-12-15T08:56:13.631Z,1018.68
2016-12-15T08:57:44.187Z,1018.65
2016-12-15T08:58:47.638Z,1018.72
2016-12-15T08:59:51.737Z,1018.7
2016-12-15T09:01:21.047Z,1018.72
2016-12-15T09:02:24.497Z,1018.71
2016-12-15T09:03:27.945Z,1018.67
2016-12-15T09:04:31.402Z,1018.73
2016-12-15T09:05:34.853Z,1018.69
2016-12-15T09:06:38.320Z,1018.74
2016-12-15T09:08:52.245Z,1018.75
2016-12-15T09:09:55.722Z,1018.71
2016-12-15T09:10:59.173Z,1018.68
2016-12-15T09:12:02.614Z,1018.73
2016-12-15T09:13:06.063Z,1018.76
2016-12-15T09:14:09.514Z,1018.77
2016-12-15T09:15:12.964Z,1018.75
2016-12-15T09:16:16.435Z,1018.73
2016-12-15T09:17:19.880Z,1018.77
2016-12-15T09:18:23.821Z,1018.75
2016-12-15T09:19:53.632Z,1018.75
2016-12-15T09:20:57.094Z,1018.72
2016-12-15T09:22:00.560Z,1018.7
2016-12-15T09:23:04.010Z,1018.75
2016-12-15T09:24:08.150Z,1018.71
2016-12-15T09:26:40.234Z,1018.75
2016-12-15T09:27:43.675Z,1018.75
2016-12-15T09:28:47.137Z,1018.76
2016-12-15T09:29:50.593Z,1018.77
2016-12-15T09:30:54.054Z,1018.68
2016-12-15T09:31:57.552Z,1018.7
2016-12-15T09:33:01.000Z,1018.74
2016-12-15T09:34:04.457Z,1018.74
2016-12-15T09:35:07.945Z,1018.69
2016-12-15T09:37:39.410Z,1018.64
2016-12-15T09:39:10.319Z,1018.71
2016-12-15T09:40:20.881Z,1018.72
2016-12-15T09:42:53.692Z,1018.7
2016-12-15T09:43:58.021Z,1018.79
2016-12-15T09:45:01.462Z,1018.73
2016-12-15T09:46:04.935Z,1018.76
2016-12-15T09:47:08.400Z,1018.76
2016-12-15T09:48:11.846Z,1018.75
2016-12-15T09:50:43.296Z,1018.74
2016-12-15T09:51:46.771Z,1018.75
2016-12-15T09:52:50.229Z,1018.69
2016-12-15T09:53:53.682Z,1018.66
2016-12-15T09:54:57.135Z,1018.67
2016-12-15T09:56:00.608Z,1018.67
2016-12-15T09:57:04.065Z,1018.71
2016-12-15T09:58:07.507Z,1018.68
2016-12-15T09:59:10.994Z,1018.66
2016-12-15T10:00:14.450Z,1018.69
2016-12-15T10:01:17.897Z,1018.67
2016-12-15T10:02:21.341Z,1018.67
2016-12-15T10:03:24.808Z,1018.63
2016-12-15T10:04:28.255Z,1018.63
2016-12-15T10:05:31.702Z,1018.67
2016-12-15T10:06:35.168Z,1018.63
2016-12-15T10:07:38.614Z,1018.65
2016-12-15T10:08:42.080Z,1018.62
2016-12-15T10:09:45.535Z,1018.69
2016-12-15T10:10:48.982Z,1018.71
2016-12-15T10:11:52.425Z,1018.7
2016-12-15T10:12:55.889Z,1018.65
2016-12-15T10:13:59.335Z,1018.66
2016-12-15T10:15:02.803Z,1018.68
2016-12-15T10:16:06.253Z,1018.69
2016-12-15T10:17:10.497Z,1018.66
2016-12-15T10:18:39.643Z,1018.65
2016-12-15T10:19:43.072Z,1018.67
2016-12-15T10:22:16.292Z,1018.63
2016-12-15T10:23:19.733Z,1018.64
2016-12-15T10:24:23.197Z,1018.62
2016-12-15T10:25:26.652Z,1018.64
2016-12-15T10:26:30.112Z,1018.64
2016-12-15T10:29:01.788Z,1018.58
2016-12-15T10:30:05.227Z,1018.59
2016-12-15T10:31:09.365Z,1018.57
2016-12-15T10:32:38.996Z,1018.52
2016-12-15T10:35:10.078Z,1018.55
2016-12-15T10:36:13.560Z,1018.48
2016-12-15T10:37:17.017Z,1018.53
2016-12-15T10:38:20.463Z,1018.53
2016-12-15T10:39:23.921Z,1018.46
2016-12-15T10:40:27.365Z,1018.37
2016-12-15T10:41:30.800Z,1018.4
2016-12-15T10:42:35.088Z,1018.48
2016-12-15T10:45:06.758Z,1018.48
2016-12-15T10:46:10.248Z,1018.47
2016-12-15T10:48:45.501Z,1018.46
2016-12-15T10:49:48.959Z,1018.41
2016-12-15T10:50:52.386Z,1018.42
2016-12-15T10:51:55.846Z,1018.45
2016-12-15T10:52:59.305Z,1018.39
2016-12-15T10:54:02.752Z,1018.41
2016-12-15T10:55:06.206Z,1018.43
2016-12-15T10:56:09.662Z,1018.44
2016-12-15T10:57:40.568Z,1018.38
2016-12-15T10:58:44.021Z,1018.42
2016-12-15T10:59:47.493Z,1018.36
2016-12-15T11:00:50.959Z,1018.4
2016-12-15T11:01:54.407Z,1018.43
2016-12-15T11:02:57.861Z,1018.42
2016-12-15T11:04:01.337Z,1018.39
2016-12-15T11:05:04.805Z,1018.43
2016-12-15T11:06:08.252Z,1018.43
2016-12-15T11:07:11.711Z,1018.37
2016-12-15T11:08:15.192Z,1018.36
2016-12-15T11:09:18.635Z,1018.38
2016-12-15T11:10:22.077Z,1018.37
2016-12-15T11:12:53.780Z,1018.37
2016-12-15T11:13:57.220Z,1018.38
2016-12-15T11:15:00.739Z,1018.34
2016-12-15T11:16:04.208Z,1018.35
2016-12-15T11:17:07.707Z,1018.32
2016-12-15T11:18:11.156Z,1018.28
2016-12-15T11:19:14.608Z,1018.23
2016-12-15T11:20:18.072Z,1018.35
2016-12-15T11:21:21.543Z,1018.26
2016-12-15T11:22:25.012Z,1018.24
2016-12-15T11:23:28.468Z,1018.23
2016-12-15T11:24:31.920Z,1018.19
2016-12-15T11:25:35.373Z,1018.19
2016-12-15T11:26:38.828Z,1018.19
2016-12-15T11:27:42.270Z,1018.18
2016-12-15T11:28:45.734Z,1018.13
2016-12-15T11:29:49.180Z,1018.16
2016-12-15T11:30:52.630Z,1018.05
2016-12-15T11:31:56.094Z,1018.1
2016-12-15T11:32:59.537Z,1018.13
2016-12-15T11:34:02.986Z,1018.12
2016-12-15T11:35:06.462Z,1018.09
2016-12-15T11:36:09.918Z,1018.08
2016-12-15T11:37:13.374Z,1018.06
2016-12-15T11:38:16.828Z,1018.06
2016-12-15T11:39:20.307Z,1018.09
2016-12-15T11:40:23.767Z,1018.06
2016-12-15T11:41:27.215Z,1018.03
2016-12-15T11:42:30.667Z,1018.04
2016-12-15T11:43:34.120Z,1018.03
2016-12-15T11:44:37.569Z,1018.05
2016-12-15T11:45:41.035Z,1017.97
2016-12-15T11:46:44.516Z,1017.95
2016-12-15T11:47:47.971Z,1017.93
2016-12-15T11:48:51.416Z,1017.93
2016-12-15T11:49:54.882Z,1017.91
2016-12-15T11:50:58.331Z,1017.89
2016-12-15T11:52:01.778Z,1017.87
2016-12-15T11:53:05.257Z,1017.92
2016-12-15T11:54:08.721Z,1017.89
2016-12-15T11:55:12.151Z,1017.85
2016-12-15T11:56:15.616Z,1017.87
2016-12-15T11:57:19.089Z,1017.87
2016-12-15T11:58:22.564Z,1017.87
2016-12-15T11:59:26.008Z,1017.86
2016-12-15T12:00:29.478Z,1017.84
2016-12-15T12:01:32.939Z,1017.88
2016-12-15T12:02:36.393Z,1017.87
2016-12-15T12:05:09.828Z,1017.88
2016-12-15T12:06:13.276Z,1017.87
2016-12-15T12:07:16.713Z,1017.88
2016-12-15T12:08:20.183Z,1017.82
2016-12-15T12:09:23.636Z,1017.8
2016-12-15T12:10:27.082Z,1017.82
2016-12-15T12:11:30.547Z,1017.84
2016-12-15T12:12:33.996Z,1017.81
2016-12-15T12:13:37.458Z,1017.78
2016-12-15T12:14:40.899Z,1017.76
2016-12-15T12:15:44.363Z,1017.73
2016-12-15T12:16:47.814Z,1017.73
2016-12-15T12:17:51.248Z,1017.7
2016-12-15T12:18:54.687Z,1017.74
2016-12-15T12:19:58.144Z,1017.7
2016-12-15T12:21:01.606Z,1017.7
2016-12-15T12:22:05.056Z,1017.67
2016-12-15T12:24:36.166Z,1017.67
2016-12-15T12:25:39.625Z,1017.66
2016-12-15T12:26:43.065Z,1017.67
2016-12-15T12:27:46.515Z,1017.68
2016-12-15T12:28:49.963Z,1017.71
2016-12-15T12:29:53.410Z,1017.67
2016-12-15T12:30:56.870Z,1017.67
2016-12-15T12:32:00.318Z,1017.67
2016-12-15T12:33:03.773Z,1017.66
2016-12-15T12:34:07.238Z,1017.64
2016-12-15T12:35:10.669Z,1017.6
2016-12-15T12:36:14.129Z,1017.61
2016-12-15T12:37:17.581Z,1017.6
2016-12-15T12:38:21.027Z,1017.61
2016-12-15T12:39:24.486Z,1017.56
2016-12-15T12:40:27.919Z,1017.58
2016-12-15T12:41:31.368Z,1017.55
2016-12-15T12:42:34.827Z,1017.54
2016-12-15T12:43:38.275Z,1017.54
2016-12-15T12:44:41.737Z,1017.54
2016-12-15T12:45:45.180Z,1017.52
2016-12-15T12:46:48.619Z,1017.53
2016-12-15T12:47:52.078Z,1017.52
2016-12-15T12:48:55.549Z,1017.51
2016-12-15T12:49:59.012Z,1017.51
2016-12-15T12:51:02.468Z,1017.5
2016-12-15T12:52:05.919Z,1017.53
2016-12-15T12:53:09.356Z,1017.44
2016-12-15T12:54:12.812Z,1017.52
2016-12-15T12:55:16.276Z,1017.49
2016-12-15T12:56:19.734Z,1017.51
2016-12-15T12:58:50.820Z,1017.51
2016-12-15T12:59:54.294Z,1017.5
2016-12-15T13:01:25.192Z,1017.45
2016-12-15T13:02:28.636Z,1017.49
2016-12-15T13:03:59.173Z,1017.47
2016-12-15T13:05:02.627Z,1017.45
2016-12-15T13:06:06.085Z,1017.42
2016-12-15T13:07:09.534Z,1017.47
2016-12-15T13:08:12.988Z,1017.43
2016-12-15T13:09:16.439Z,1017.45
2016-12-15T13:10:19.885Z,1017.43
2016-12-15T13:11:23.354Z,1017.41
2016-12-15T13:12:26.816Z,1017.44
2016-12-15T13:13:30.258Z,1017.43
2016-12-15T13:14:33.715Z,1017.42
2016-12-15T13:15:37.179Z,1017.43
2016-12-15T13:16:40.623Z,1017.42
2016-12-15T13:17:44.092Z,1017.39
2016-12-15T13:18:47.555Z,1017.41
2016-12-15T13:19:51.008Z,1017.42
2016-12-15T13:20:54.470Z,1017.39
2016-12-15T13:23:25.581Z,1017.4
2016-12-15T13:24:29.035Z,1017.4
2016-12-15T13:25:32.485Z,1017.42
2016-12-15T13:26:35.945Z,1017.39